createdAt,value
2022-07-29T00:01:54.794Z,102023.50
2022-07-29T00:04:25.044Z,102016.41
2022-07-29T00:06:55.390Z,102012.84
2022-07-29T00:09:25.475Z,102006.66
2022-07-29T00:11:56.411Z,102010.22
2022-07-29T00:14:26.633Z,102006.66
2022-07-29T00:16:58.314Z,102011.09
2022-07-29T00:19:28.603Z,102009.28
2022-07-29T00:21:58.642Z,102011.06
2022-07-29T00:24:29.672Z,102015.53
2022-07-29T00:26:59.742Z,102011.06
2022-07-29T00:29:34.462Z,102016.41
2022-07-29T00:32:06.845Z,102017.25
2022-07-29T00:34:54.323Z,102017.28
2022-07-29T00:37:24.353Z,102016.38
2022-07-29T00:39:54.692Z,102014.59
2022-07-29T00:42:24.732Z,102014.59
2022-07-29T00:44:54.995Z,102014.56
2022-07-29T00:47:26.423Z,102019.94
2022-07-29T00:49:56.706Z,102012.84
2022-07-29T00:52:26.821Z,102018.13
2022-07-29T00:54:57.182Z,102017.22
2022-07-29T00:57:27.354Z,102007.47
2022-07-29T00:59:57.402Z,102017.22
2022-07-29T01:02:29.434Z,102011.91
2022-07-29T01:05:00.172Z,102014.56
2022-07-29T01:07:32.694Z,102020.75
2022-07-29T01:10:03.762Z,102021.63
2022-07-29T01:12:35.393Z,102018.97
2022-07-29T01:15:08.162Z,102025.19
2022-07-29T01:17:53.636Z,102022.53
2022-07-29T01:20:31.723Z,102024.28
2022-07-29T01:23:17.643Z,102020.75
2022-07-29T01:26:22.372Z,102018.94
2022-07-29T01:29:08.299Z,102024.28
2022-07-29T01:31:58.784Z,102031.34
2022-07-29T01:34:37.923Z,102030.47
2022-07-29T01:37:16.562Z,102028.66
2022-07-29T01:39:49.642Z,102020.69
2022-07-29T01:42:28.979Z,102010.97
2022-07-29T01:45:04.751Z,102017.22
2022-07-29T01:47:39.951Z,102019.88
2022-07-29T01:50:15.232Z,102016.28
2022-07-29T01:52:49.283Z,102016.28
2022-07-29T01:55:22.802Z,102021.59
2022-07-29T01:57:53.905Z,102007.41
2022-07-29T02:00:27.635Z,102010.06
2022-07-29T02:02:58.844Z,102009.16
2022-07-29T02:05:31.121Z,102013.56
2022-07-29T02:08:03.058Z,102011.78
2022-07-29T02:10:35.963Z,102011.78
2022-07-29T02:13:08.751Z,102012.63
2022-07-29T02:15:43.675Z,102018.84
2022-07-29T02:18:19.122Z,102020.59
2022-07-29T02:20:51.256Z,102017.06
2022-07-29T02:23:23.571Z,102014.41
2022-07-29T02:25:57.543Z,102017.94
2022-07-29T02:28:29.913Z,102018.88
2022-07-29T02:31:05.377Z,102019.81
2022-07-29T02:33:36.573Z,102016.22
2022-07-29T02:36:06.850Z,102016.22
2022-07-29T02:38:54.810Z,102018.00
2022-07-29T02:41:30.658Z,102013.56
2022-07-29T02:44:06.396Z,102015.34
2022-07-29T02:46:40.441Z,102021.50
2022-07-29T02:49:18.102Z,102014.44
2022-07-29T02:51:52.080Z,102018.81
2022-07-29T02:54:34.324Z,102024.16
2022-07-29T02:57:12.051Z,102017.94
2022-07-29T02:59:47.432Z,102009.97
2022-07-29T03:02:20.437Z,102014.44
2022-07-29T03:04:53.390Z,102025.94
2022-07-29T03:07:24.524Z,102025.94
2022-07-29T03:09:55.270Z,102018.84
2022-07-29T03:12:26.470Z,102013.53
2022-07-29T03:14:58.240Z,102014.44
2022-07-29T03:17:30.263Z,102003.84
2022-07-29T03:20:00.633Z,102010.94
2022-07-29T03:22:31.021Z,102010.06
2022-07-29T03:25:09.980Z,102006.53
2022-07-29T03:27:40.680Z,102006.53
2022-07-29T03:30:12.342Z,102005.63
2022-07-29T03:32:52.238Z,102011.81
2022-07-29T03:35:22.880Z,102021.56
2022-07-29T03:37:53.173Z,102018.91
2022-07-29T03:40:28.594Z,102021.56
2022-07-29T03:42:59.863Z,102023.34
2022-07-29T03:45:31.731Z,102020.69
2022-07-29T03:48:08.332Z,102021.56
2022-07-29T03:50:39.052Z,102025.13
2022-07-29T03:53:10.040Z,102024.28
2022-07-29T03:55:45.363Z,102024.25
2022-07-29T03:58:17.199Z,102032.22
2022-07-29T04:00:49.109Z,102030.47
2022-07-29T04:03:21.550Z,102023.38
2022-07-29T04:06:02.234Z,102030.50
2022-07-29T04:08:32.451Z,102028.75
2022-07-29T04:11:02.862Z,102025.22
2022-07-29T04:13:33.390Z,102031.47
2022-07-29T04:16:03.681Z,102033.22
2022-07-29T04:18:35.921Z,102033.25
2022-07-29T04:21:07.031Z,102027.06
2022-07-29T04:23:46.051Z,102031.50
2022-07-29T04:26:23.681Z,102028.81
2022-07-29T04:28:53.940Z,102019.06
2022-07-29T04:31:26.056Z,102028.81
2022-07-29T04:33:58.051Z,102037.75
2022-07-29T04:36:29.333Z,102030.59
2022-07-29T04:39:00.396Z,102027.81
2022-07-29T04:41:33.060Z,102026.91
2022-07-29T04:44:07.152Z,102021.47
2022-07-29T04:46:37.746Z,102027.66
2022-07-29T04:49:09.625Z,102021.19
2022-07-29T04:51:39.772Z,102019.22
2022-07-29T04:54:10.114Z,102017.16
2022-07-29T04:56:40.281Z,102014.78
2022-07-29T04:59:10.303Z,102019.34
2022-07-29T05:01:43.567Z,102014.94
2022-07-29T05:04:15.331Z,102015.66
2022-07-29T05:06:45.823Z,102017.09
2022-07-29T05:09:15.908Z,102014.19
2022-07-29T05:11:46.145Z,102022.88
2022-07-29T05:14:16.671Z,102028.88
2022-07-29T05:16:47.160Z,102014.41
2022-07-29T05:19:18.763Z,102021.53
2022-07-29T05:21:49.124Z,102021.31
2022-07-29T05:24:19.755Z,102023.59
2022-07-29T05:26:50.290Z,102025.88
2022-07-29T05:29:42.481Z,102016.03
2022-07-29T05:32:10.902Z,102018.28
2022-07-29T05:34:50.321Z,102022.78
2022-07-29T05:37:22.432Z,102010.56
2022-07-29T05:39:56.499Z,102015.22
2022-07-29T05:42:27.889Z,102014.19
2022-07-29T05:44:58.332Z,102015.59
2022-07-29T05:47:28.640Z,102010.91
2022-07-29T05:50:00.430Z,101999.72
2022-07-29T05:52:30.751Z,102009.41
2022-07-29T05:55:04.041Z,102012.00
2022-07-29T05:57:34.832Z,102005.47
2022-07-29T06:00:05.681Z,102009.34
2022-07-29T06:02:42.542Z,102002.19
2022-07-29T06:05:16.957Z,101997.13
2022-07-29T06:07:50.879Z,101995.41
2022-07-29T06:10:26.189Z,102004.63
2022-07-29T06:12:57.830Z,102007.56
2022-07-29T06:15:28.062Z,102009.03
2022-07-29T06:18:00.141Z,102007.28
2022-07-29T06:20:33.762Z,102005.81
2022-07-29T06:23:05.800Z,102005.34
2022-07-29T06:25:37.152Z,102016.03
2022-07-29T06:28:07.740Z,102020.09
2022-07-29T06:30:37.843Z,102018.03
2022-07-29T06:33:08.323Z,102014.66
2022-07-29T06:35:41.884Z,102014.94
2022-07-29T06:38:30.022Z,102015.50
2022-07-29T06:41:03.579Z,102011.88
2022-07-29T06:43:52.274Z,102003.47
2022-07-29T06:46:25.787Z,102015.44
2022-07-29T06:48:56.231Z,102007.38
2022-07-29T06:51:28.950Z,102007.72
2022-07-29T06:54:03.393Z,102009.94
2022-07-29T06:56:39.269Z,102011.88
2022-07-29T06:59:11.824Z,102014.66
2022-07-29T07:01:43.082Z,102008.97
2022-07-29T07:04:15.118Z,102018.69
2022-07-29T07:06:46.941Z,102016.56
2022-07-29T07:09:17.329Z,102011.38
2022-07-29T07:11:49.578Z,102012.03
2022-07-29T07:14:21.230Z,102008.06
2022-07-29T07:16:52.547Z,102014.59
2022-07-29T07:19:24.324Z,102010.03
2022-07-29T07:21:56.127Z,102015.69
2022-07-29T07:24:26.666Z,102010.97
2022-07-29T07:26:56.801Z,102006.59
2022-07-29T07:29:27.006Z,102010.91
2022-07-29T07:32:00.983Z,101999.13
2022-07-29T07:34:32.569Z,101999.06
2022-07-29T07:37:04.045Z,102009.22
2022-07-29T07:39:35.289Z,102000.13
2022-07-29T07:42:05.399Z,102000.44
2022-07-29T07:44:51.232Z,102001.06
2022-07-29T07:47:27.817Z,102004.50
2022-07-29T07:49:58.449Z,102005.38
2022-07-29T07:52:30.118Z,102009.47
2022-07-29T07:55:00.695Z,102008.31
2022-07-29T07:57:31.031Z,102003.75
2022-07-29T08:00:02.449Z,102003.59
2022-07-29T08:02:44.141Z,102005.13
2022-07-29T08:05:18.255Z,102002.16
2022-07-29T08:07:50.291Z,102011.75
2022-07-29T08:10:35.462Z,102012.91
2022-07-29T08:13:06.309Z,102017.00
2022-07-29T08:15:37.000Z,102006.88
2022-07-29T08:18:08.837Z,102004.50
2022-07-29T08:20:41.050Z,102007.66
2022-07-29T08:23:12.589Z,102010.44
2022-07-29T08:25:45.240Z,102009.38
2022-07-29T08:28:16.804Z,102015.13
2022-07-29T08:30:47.091Z,102019.72
2022-07-29T08:33:17.112Z,102016.91
2022-07-29T08:35:47.211Z,102020.69
2022-07-29T08:38:19.031Z,102022.19
2022-07-29T08:40:49.660Z,102022.44
2022-07-29T08:43:20.041Z,102015.56
2022-07-29T08:45:52.519Z,102021.97
2022-07-29T08:48:26.002Z,102014.47
2022-07-29T08:50:58.758Z,102006.03
2022-07-29T08:53:32.045Z,102019.19
2022-07-29T08:56:03.129Z,102012.06
2022-07-29T08:58:36.890Z,102018.72
2022-07-29T09:01:10.814Z,102023.09
2022-07-29T09:03:44.398Z,102020.56
2022-07-29T09:06:17.101Z,102013.44
2022-07-29T09:08:49.951Z,102008.34
2022-07-29T09:11:20.102Z,102008.13
2022-07-29T09:13:50.971Z,102011.91
2022-07-29T09:16:43.851Z,102002.03
2022-07-29T09:19:27.539Z,102004.06
2022-07-29T09:22:03.730Z,102000.84
2022-07-29T09:24:43.740Z,101996.69
2022-07-29T09:27:24.812Z,102000.41
2022-07-29T09:30:02.235Z,102001.19
2022-07-29T09:32:32.751Z,102008.06
2022-07-29T09:35:23.087Z,102005.03
2022-07-29T09:37:53.189Z,102003.53
2022-07-29T09:40:27.413Z,101994.53
2022-07-29T09:42:58.562Z,101999.06
2022-07-29T09:45:33.847Z,101994.28
2022-07-29T09:48:17.990Z,101996.84
2022-07-29T09:50:50.882Z,101994.56
2022-07-29T09:53:34.401Z,101990.56
2022-07-29T09:56:06.700Z,101989.16
2022-07-29T09:58:37.210Z,101982.16
2022-07-29T10:01:07.641Z,101986.81
2022-07-29T10:03:54.383Z,101981.28
2022-07-29T10:06:24.840Z,101988.84
2022-07-29T10:08:55.991Z,101983.09
2022-07-29T10:11:48.995Z,101982.88
2022-07-29T10:14:18.891Z,101976.31
2022-07-29T10:16:49.547Z,101984.44
2022-07-29T10:19:20.711Z,101974.88
2022-07-29T10:21:55.056Z,101973.84
2022-07-29T10:24:30.942Z,101974.72
2022-07-29T10:27:04.941Z,101973.97
2022-07-29T10:29:35.673Z,101976.91
2022-07-29T10:32:39.312Z,101975.34
2022-07-29T10:35:47.205Z,101979.19
2022-07-29T10:38:52.163Z,101979.66
2022-07-29T10:41:53.381Z,101970.19
2022-07-29T10:44:26.363Z,101966.22
2022-07-29T10:46:57.292Z,101964.22
2022-07-29T10:49:31.233Z,101974.84
2022-07-29T10:52:07.482Z,101971.66
2022-07-29T10:54:55.921Z,101968.50
2022-07-29T10:57:52.475Z,101967.03
2022-07-29T11:00:36.329Z,101969.00
2022-07-29T11:03:10.583Z,101967.03
2022-07-29T11:05:59.931Z,101974.88
2022-07-29T11:08:32.091Z,101962.06
2022-07-29T11:11:43.995Z,101959.28
2022-07-29T11:14:41.650Z,101964.41
2022-07-29T11:17:13.988Z,101958.53
2022-07-29T11:19:51.000Z,101970.06
2022-07-29T11:22:36.742Z,101961.84
2022-07-29T11:25:50.832Z,101957.00
2022-07-29T11:28:23.206Z,101962.56
2022-07-29T11:30:56.602Z,101956.03
2022-07-29T11:33:54.625Z,101960.16
2022-07-29T11:36:28.370Z,101951.16
2022-07-29T11:39:36.270Z,101951.72
2022-07-29T11:42:41.961Z,101958.44
2022-07-29T11:45:43.164Z,101963.34
2022-07-29T11:48:28.353Z,101961.59
2022-07-29T11:51:02.953Z,101965.84
2022-07-29T11:53:33.620Z,101964.38
2022-07-29T11:56:06.420Z,101959.13
2022-07-29T11:58:38.559Z,101964.19
2022-07-29T12:01:09.150Z,101957.38
2022-07-29T12:03:39.421Z,101956.53
2022-07-29T12:06:18.078Z,101960.41
2022-07-29T12:08:48.691Z,101971.97
2022-07-29T12:11:20.383Z,101962.50
2022-07-29T12:13:53.490Z,101961.59
2022-07-29T12:16:29.487Z,101967.47
2022-07-29T12:19:00.738Z,101949.44
2022-07-29T12:21:53.611Z,101952.72
2022-07-29T12:24:27.403Z,101951.00
2022-07-29T12:27:00.853Z,101943.63
2022-07-29T12:29:33.690Z,101949.94
2022-07-29T12:32:14.486Z,101947.50
2022-07-29T12:34:50.205Z,101937.09
2022-07-29T12:37:31.861Z,101952.13
2022-07-29T12:40:11.789Z,101948.78
2022-07-29T12:42:42.052Z,101944.94
2022-07-29T12:45:12.750Z,101943.72
2022-07-29T12:47:55.191Z,101953.59
2022-07-29T12:50:26.645Z,101961.56
2022-07-29T12:53:10.672Z,101960.56
2022-07-29T12:55:46.417Z,101950.75
2022-07-29T12:58:16.534Z,101948.19
2022-07-29T13:00:47.237Z,101944.19
2022-07-29T13:03:17.367Z,101952.47
2022-07-29T13:05:51.732Z,101957.16
2022-07-29T13:08:23.343Z,101953.41
2022-07-29T13:10:53.804Z,101954.66
2022-07-29T13:13:24.069Z,101957.34
2022-07-29T13:16:10.422Z,101954.97
2022-07-29T13:18:42.649Z,101948.50
2022-07-29T13:21:16.813Z,101951.31
2022-07-29T13:23:50.504Z,101947.81
2022-07-29T13:26:21.038Z,101957.66
2022-07-29T13:28:51.127Z,101954.63
2022-07-29T13:31:21.458Z,101960.00
2022-07-29T13:33:51.710Z,101949.81
2022-07-29T13:36:23.429Z,101948.66
2022-07-29T13:38:55.198Z,101952.63
2022-07-29T13:41:25.967Z,101952.66
2022-07-29T13:43:56.068Z,101949.03
2022-07-29T13:46:26.748Z,101948.25
2022-07-29T13:48:57.457Z,101949.56
2022-07-29T13:51:28.009Z,101952.84
2022-07-29T13:53:59.417Z,101958.63
2022-07-29T13:56:29.757Z,101960.88
2022-07-29T13:59:00.007Z,101959.28
2022-07-29T14:01:31.667Z,101954.09
2022-07-29T14:04:02.502Z,101954.31
2022-07-29T14:06:33.951Z,101959.56
2022-07-29T14:09:07.578Z,101962.25
2022-07-29T14:11:39.655Z,101962.16
2022-07-29T14:14:11.428Z,101961.75
2022-07-29T14:16:47.555Z,101957.97
2022-07-29T14:19:20.790Z,101958.97
2022-07-29T14:21:51.129Z,101950.34
2022-07-29T14:24:23.820Z,101945.25
2022-07-29T14:26:54.317Z,101945.13
2022-07-29T14:29:24.862Z,101941.47
2022-07-29T14:32:09.458Z,101948.91
2022-07-29T14:34:40.885Z,101927.44
2022-07-29T14:37:15.865Z,101939.81
2022-07-29T14:39:47.813Z,101935.72
2022-07-29T14:42:18.055Z,101931.66
2022-07-29T14:44:49.191Z,101923.38
2022-07-29T14:47:20.854Z,101927.59
2022-07-29T14:49:51.149Z,101925.13
2022-07-29T14:52:21.778Z,101920.28
2022-07-29T14:54:53.548Z,101914.09
2022-07-29T14:57:24.497Z,101923.78
2022-07-29T14:59:55.631Z,101928.94
2022-07-29T15:02:45.760Z,101924.72
2022-07-29T15:05:18.950Z,101931.94
2022-07-29T15:07:51.080Z,101912.56
2022-07-29T15:10:24.668Z,101923.78
2022-07-29T15:12:55.123Z,101917.44
2022-07-29T15:15:25.525Z,101918.44
2022-07-29T15:17:55.735Z,101932.03
2022-07-29T15:20:28.416Z,101914.34
2022-07-29T15:22:58.532Z,101925.69
2022-07-29T15:25:30.622Z,101923.16
2022-07-29T15:28:03.565Z,101924.69
2022-07-29T15:30:37.104Z,101919.69
2022-07-29T15:33:08.194Z,101918.03
2022-07-29T15:35:40.118Z,101911.19
2022-07-29T15:38:11.081Z,101914.97
2022-07-29T15:40:44.932Z,101909.84
2022-07-29T15:43:15.221Z,101906.41
2022-07-29T15:46:02.671Z,101916.59
2022-07-29T15:48:32.892Z,101908.66
2022-07-29T15:51:03.449Z,101905.13
2022-07-29T15:53:35.296Z,101908.50
2022-07-29T15:56:08.007Z,101896.56
2022-07-29T15:58:38.106Z,101901.88
2022-07-29T16:01:09.001Z,101901.63
2022-07-29T16:03:42.007Z,101898.00
2022-07-29T16:06:16.354Z,101896.84
2022-07-29T16:08:47.225Z,101884.84
2022-07-29T16:11:18.935Z,101886.44
2022-07-29T16:13:50.252Z,101881.59
2022-07-29T16:16:21.389Z,101887.13
2022-07-29T16:18:51.482Z,101883.41
2022-07-29T16:21:23.055Z,101887.44
2022-07-29T16:23:53.462Z,101883.63
2022-07-29T16:26:25.042Z,101886.00
2022-07-29T16:28:55.322Z,101883.97
2022-07-29T16:31:25.526Z,101879.78
2022-07-29T16:33:58.071Z,101883.03
2022-07-29T16:36:28.212Z,101879.31
2022-07-29T16:38:58.560Z,101882.03
2022-07-29T16:41:29.983Z,101881.47
2022-07-29T16:44:00.295Z,101870.94
2022-07-29T16:46:30.538Z,101873.41
2022-07-29T16:49:00.905Z,101869.53
2022-07-29T16:51:31.672Z,101873.59
2022-07-29T16:54:01.801Z,101871.13
2022-07-29T16:56:33.502Z,101875.16
2022-07-29T16:59:03.794Z,101869.28
2022-07-29T17:01:34.427Z,101874.16
2022-07-29T17:04:07.392Z,101876.56
2022-07-29T17:06:38.843Z,101866.91
2022-07-29T17:09:10.911Z,101867.03
2022-07-29T17:11:52.727Z,101868.97
2022-07-29T17:14:25.995Z,101873.78
2022-07-29T17:17:00.878Z,101874.28
2022-07-29T17:19:33.153Z,101871.81
2022-07-29T17:22:10.470Z,101867.09
2022-07-29T17:24:43.303Z,101871.69
2022-07-29T17:27:15.955Z,101870.00
2022-07-29T17:29:46.669Z,101871.47
2022-07-29T17:32:17.014Z,101872.63
2022-07-29T17:34:47.209Z,101872.69
2022-07-29T17:37:17.468Z,101875.03
2022-07-29T17:39:48.887Z,101874.56
2022-07-29T17:42:21.734Z,101872.69
2022-07-29T17:44:52.955Z,101880.69
2022-07-29T17:47:23.516Z,101882.47
2022-07-29T17:49:53.777Z,101874.50
2022-07-29T17:52:24.082Z,101873.88
2022-07-29T17:54:54.666Z,101865.81
2022-07-29T17:57:26.193Z,101875.81
2022-07-29T17:59:56.593Z,101875.09
2022-07-29T18:02:26.977Z,101871.50
2022-07-29T18:04:59.073Z,101873.59
2022-07-29T18:07:29.173Z,101869.47
2022-07-29T18:10:00.720Z,101880.66
2022-07-29T18:12:32.825Z,101872.91
2022-07-29T18:15:03.091Z,101868.47
2022-07-29T18:17:50.488Z,101877.63
2022-07-29T18:20:23.640Z,101871.44
2022-07-29T18:22:54.010Z,101871.97
2022-07-29T18:25:24.362Z,101871.19
2022-07-29T18:28:00.308Z,101874.13
2022-07-29T18:30:31.422Z,101874.47
2022-07-29T18:36:10.810Z,101878.09
2022-07-29T18:38:43.681Z,101868.63
2022-07-29T18:41:16.895Z,101871.41
2022-07-29T18:43:49.060Z,101874.09
2022-07-29T18:46:20.422Z,101870.72
2022-07-29T18:48:52.567Z,101881.44
2022-07-29T18:51:23.629Z,101875.44
2022-07-29T18:53:56.201Z,101883.72
2022-07-29T18:56:26.641Z,101882.13
2022-07-29T18:59:03.925Z,101881.09
2022-07-29T19:01:39.346Z,101884.00
2022-07-29T19:04:14.089Z,101885.94
2022-07-29T19:06:49.207Z,101887.03
2022-07-29T19:09:26.665Z,101875.41
2022-07-29T19:12:03.678Z,101886.28
2022-07-29T19:14:38.470Z,101879.38
2022-07-29T19:17:14.451Z,101886.66
2022-07-29T19:19:47.488Z,101884.03
2022-07-29T19:22:22.047Z,101885.25
2022-07-29T19:24:54.322Z,101879.09
2022-07-29T19:27:24.743Z,101879.25
2022-07-29T19:30:00.780Z,101883.09
2022-07-29T19:32:34.157Z,101884.25
2022-07-29T19:35:23.541Z,101882.69
2022-07-29T19:37:54.683Z,101881.03
2022-07-29T19:40:43.888Z,101881.16
2022-07-29T19:43:50.505Z,101881.13
2022-07-29T19:46:07.883Z,101884.78
2022-07-29T19:48:38.935Z,101870.59
2022-07-29T19:51:08.959Z,101877.94
2022-07-29T19:53:42.343Z,101877.94
2022-07-29T19:56:13.826Z,101879.88
2022-07-29T19:58:46.451Z,101882.63
2022-07-29T20:01:20.616Z,101882.94
2022-07-29T20:03:54.883Z,101890.28
2022-07-29T20:06:28.458Z,101881.50
2022-07-29T20:09:02.690Z,101886.03
2022-07-29T20:11:37.807Z,101881.66
2022-07-29T20:14:10.235Z,101879.06
2022-07-29T20:16:43.122Z,101882.72
2022-07-29T20:19:15.333Z,101889.00
2022-07-29T20:21:47.615Z,101883.72
2022-07-29T20:24:18.321Z,101887.41
2022-07-29T20:26:50.294Z,101888.38
2022-07-29T20:29:21.204Z,101892.81
2022-07-29T20:31:56.659Z,101888.44
2022-07-29T20:34:31.883Z,101896.44
2022-07-29T20:37:04.615Z,101886.69
2022-07-29T20:39:37.995Z,101889.44
2022-07-29T20:42:09.914Z,101887.66
2022-07-29T20:44:40.323Z,101885.94
2022-07-29T20:47:13.097Z,101891.34
2022-07-29T20:49:43.414Z,101891.34
2022-07-29T20:52:13.563Z,101889.63
2022-07-29T20:54:48.886Z,101899.47
2022-07-29T20:57:38.944Z,101890.53
2022-07-29T21:00:12.652Z,101891.41
2022-07-29T21:02:44.844Z,101890.53
2022-07-29T21:05:15.094Z,101896.78
2022-07-29T21:07:46.692Z,101900.31
2022-07-29T21:10:18.562Z,101898.59
2022-07-29T21:12:50.296Z,101899.50
2022-07-29T21:15:22.104Z,101907.53
2022-07-29T21:18:01.158Z,101908.44
2022-07-29T21:20:34.945Z,101901.38
2022-07-29T21:23:08.102Z,101901.41
2022-07-29T21:25:39.135Z,101901.41
2022-07-29T21:28:27.326Z,101900.50
2022-07-29T21:31:00.445Z,101889.88
2022-07-29T21:33:35.279Z,101896.09
2022-07-29T21:36:27.100Z,101899.59
2022-07-29T21:38:59.890Z,101894.31
2022-07-29T21:41:31.501Z,101900.63
2022-07-29T21:44:04.050Z,101896.22
2022-07-29T21:46:36.981Z,101905.16
2022-07-29T21:49:10.402Z,101901.63
2022-07-29T21:51:41.306Z,101897.13
2022-07-29T21:54:13.758Z,101897.19
2022-07-29T21:56:51.137Z,101894.56
2022-07-29T21:59:22.396Z,101896.38
2022-07-29T22:01:52.716Z,101899.94
2022-07-29T22:04:24.930Z,101900.84
2022-07-29T22:49:10.064Z,101859.28
2022-07-29T22:51:39.708Z,101861.97
2022-07-29T22:54:09.876Z,101856.63
2022-07-29T22:56:39.793Z,101852.19
2022-07-29T22:59:09.846Z,101859.28
2022-07-29T23:01:40.197Z,101857.50
2022-07-29T23:04:11.955Z,101848.63
2022-07-29T23:06:42.330Z,101852.19
2022-07-29T23:09:12.346Z,101852.22
2022-07-29T23:11:42.294Z,101856.63
2022-07-29T23:14:12.626Z,101849.53
2022-07-29T23:16:42.717Z,101845.06
2022-07-29T23:19:14.579Z,101848.59
2022-07-29T23:21:44.875Z,101841.56
2022-07-29T23:24:15.337Z,101845.97
2022-07-29T23:26:54.263Z,101848.63
2022-07-29T23:29:24.583Z,101832.66
2022-07-29T23:31:54.595Z,101846.84
2022-07-29T23:34:26.445Z,101837.09
2022-07-29T23:36:56.428Z,101836.22
2022-07-29T23:39:26.725Z,101839.75
2022-07-29T23:41:56.718Z,101840.66
2022-07-29T23:44:26.943Z,101844.19
2022-07-29T23:47:09.514Z,101840.66
2022-07-29T23:49:41.410Z,101838.88
2022-07-29T23:52:11.735Z,101838.88
2022-07-29T23:54:42.035Z,101838.88
2022-07-29T23:57:12.148Z,101846.88
2022-07-29T23:59:42.265Z,101840.66
